createdAt,value
2017-05-11T00:00:23.719Z,0
2017-05-11T00:01:37.519Z,0
2017-05-11T00:02:50.212Z,0
2017-05-11T00:04:02.679Z,0
2017-05-11T00:05:47.279Z,0
2017-05-11T00:07:01.062Z,0
2017-05-11T00:08:13.744Z,0
2017-05-11T00:09:27.608Z,0
2017-05-11T00:10:41.334Z,0
2017-05-11T00:11:53.894Z,0
2017-05-11T00:13:07.820Z,0
2017-05-11T00:14:20.314Z,0
2017-05-11T00:15:34.089Z,0
2017-05-11T00:16:47.829Z,0
2017-05-11T00:18:01.638Z,0
2017-05-11T00:19:15.578Z,0
2017-05-11T00:20:29.596Z,0
2017-05-11T00:21:43.458Z,0
2017-05-11T00:22:55.913Z,0
2017-05-11T00:24:10.030Z,0
2017-05-11T00:25:23.802Z,0
2017-05-11T00:26:37.572Z,0
2017-05-11T00:27:51.291Z,0
2017-05-11T00:29:05.041Z,0
2017-05-11T00:30:18.972Z,0
2017-05-11T00:31:31.404Z,0
2017-05-11T00:32:45.147Z,0
2017-05-11T00:33:56.305Z,0
2017-05-11T00:35:10.217Z,0
2017-05-11T00:36:23.970Z,0
2017-05-11T00:37:36.508Z,0
2017-05-11T00:38:50.239Z,0
2017-05-11T00:40:04.078Z,0
2017-05-11T00:41:16.765Z,0
2017-05-11T00:42:27.917Z,0
2017-05-11T00:43:40.380Z,0
2017-05-11T00:44:54.343Z,0
2017-05-11T00:46:08.280Z,0
2017-05-11T00:47:22.003Z,0
2017-05-11T00:48:35.759Z,0
2017-05-11T00:49:49.511Z,0
2017-05-11T00:51:01.955Z,0
2017-05-11T00:52:15.878Z,0
2017-05-11T00:53:28.319Z,0
2017-05-11T00:54:42.043Z,0
2017-05-11T00:55:55.807Z,0
2017-05-11T00:57:09.853Z,0
2017-05-11T00:58:23.822Z,0
2017-05-11T00:59:37.591Z,0
2017-05-11T01:00:51.311Z,0
2017-05-11T01:02:05.291Z,0
2017-05-11T01:03:19.280Z,0
2017-05-11T01:04:31.740Z,0
2017-05-11T01:05:44.256Z,0
2017-05-11T01:06:56.736Z,0
2017-05-11T01:08:07.920Z,0
2017-05-11T01:09:21.842Z,0
2017-05-11T01:10:35.616Z,0
2017-05-11T01:11:49.348Z,0
2017-05-11T01:13:03.087Z,0
2017-05-11T01:14:14.495Z,0
2017-05-11T01:15:28.373Z,0
2017-05-11T01:16:42.112Z,0
2017-05-11T01:17:55.846Z,0
2017-05-11T01:19:09.644Z,0
2017-05-11T01:20:22.600Z,0
2017-05-11T01:21:36.333Z,0
2017-05-11T01:22:50.305Z,0
2017-05-11T01:24:04.231Z,0
2017-05-11T01:25:16.860Z,0
2017-05-11T01:26:29.298Z,0
2017-05-11T01:27:43.029Z,0
2017-05-11T01:28:55.461Z,0
2017-05-11T01:30:09.171Z,0
2017-05-11T01:31:23.145Z,0
2017-05-11T01:32:36.923Z,0
2017-05-11T01:33:50.638Z,0
2017-05-11T01:35:03.090Z,0
2017-05-11T01:36:15.759Z,0
2017-05-11T01:37:29.472Z,0
2017-05-11T01:38:43.197Z,0
2017-05-11T01:39:55.636Z,0
2017-05-11T01:41:08.068Z,0
2017-05-11T01:42:20.748Z,0
2017-05-11T01:43:34.527Z,0
2017-05-11T01:44:48.473Z,0
2017-05-11T01:46:00.908Z,0
2017-05-11T01:47:14.838Z,0
2017-05-11T01:48:59.454Z,0
2017-05-11T01:50:13.195Z,0
2017-05-11T01:51:25.736Z,0
2017-05-11T01:52:39.681Z,0
2017-05-11T01:53:53.627Z,0
2017-05-11T01:55:07.350Z,0
2017-05-11T01:56:19.799Z,0
2017-05-11T01:57:33.717Z,0
2017-05-11T01:58:47.446Z,0
2017-05-11T02:00:01.186Z,0
2017-05-11T02:01:14.914Z,0
2017-05-11T02:02:28.629Z,0
2017-05-11T02:03:42.601Z,0
2017-05-11T02:04:55.080Z,0
2017-05-11T02:06:07.510Z,0
2017-05-11T02:07:21.252Z,0
2017-05-11T02:08:35.423Z,0
2017-05-11T02:09:48.127Z,0
2017-05-11T02:11:01.858Z,0
2017-05-11T02:12:15.596Z,0
2017-05-11T02:13:28.223Z,0
2017-05-11T02:14:40.878Z,0
2017-05-11T02:15:53.326Z,0
2017-05-11T02:17:05.856Z,0
2017-05-11T02:18:19.611Z,0
2017-05-11T02:19:33.546Z,0
2017-05-11T02:20:47.276Z,0
2017-05-11T02:21:59.715Z,0
2017-05-11T02:23:13.449Z,0
2017-05-11T02:24:27.175Z,0
2017-05-11T02:25:41.159Z,0
2017-05-11T02:26:54.884Z,0
2017-05-11T02:28:08.622Z,0
2017-05-11T02:29:22.387Z,0
2017-05-11T02:30:36.469Z,0
2017-05-11T02:31:50.317Z,0
2017-05-11T02:33:04.030Z,0
2017-05-11T02:34:17.750Z,0
2017-05-11T02:35:30.216Z,0
2017-05-11T02:36:44.280Z,0
2017-05-11T02:37:58.004Z,0
2017-05-11T02:39:10.468Z,0
2017-05-11T02:40:24.213Z,0
2017-05-11T02:41:36.853Z,0
2017-05-11T02:42:50.583Z,0
2017-05-11T02:44:03.046Z,0
2017-05-11T02:45:16.786Z,0
2017-05-11T02:47:01.641Z,0
2017-05-11T02:48:14.306Z,0
2017-05-11T02:49:26.743Z,0
2017-05-11T02:50:40.494Z,0
2017-05-11T02:51:54.246Z,0
2017-05-11T02:53:08.179Z,0
2017-05-11T02:54:22.130Z,0
2017-05-11T02:55:34.612Z,0
2017-05-11T02:56:48.343Z,0
2017-05-11T02:58:02.319Z,0
2017-05-11T02:59:16.117Z,0
2017-05-11T03:00:27.263Z,0
2017-05-11T03:01:39.694Z,0
2017-05-11T03:02:53.423Z,0
2017-05-11T03:04:06.121Z,0
2017-05-11T03:05:18.678Z,0
2017-05-11T03:06:32.617Z,0
2017-05-11T03:07:45.085Z,0
2017-05-11T03:08:57.829Z,0
2017-05-11T03:10:11.549Z,0
2017-05-11T03:11:25.281Z,0
2017-05-11T03:12:39.011Z,0
2017-05-11T03:13:51.506Z,0
2017-05-11T03:15:05.678Z,0
2017-05-11T03:16:19.409Z,0
2017-05-11T03:17:33.153Z,0
2017-05-11T03:18:46.908Z,5
2017-05-11T03:20:00.877Z,5
2017-05-11T03:21:14.623Z,5
2017-05-11T03:22:28.349Z,5
2017-05-11T03:23:42.087Z,5
2017-05-11T03:24:54.552Z,5
2017-05-11T03:26:08.488Z,5
2017-05-11T03:27:20.924Z,10
2017-05-11T03:28:34.659Z,10
2017-05-11T03:29:48.379Z,10
2017-05-11T03:31:02.318Z,10
2017-05-11T03:32:15.072Z,10
2017-05-11T03:33:28.799Z,15
2017-05-11T03:34:42.519Z,15
2017-05-11T03:35:56.234Z,15
2017-05-11T03:37:10.154Z,15
2017-05-11T03:38:22.606Z,20
2017-05-11T03:39:35.184Z,20
2017-05-11T03:40:48.953Z,20
2017-05-11T03:42:02.893Z,20
2017-05-11T03:43:16.862Z,25
2017-05-11T03:44:30.595Z,25
2017-05-11T03:45:43.045Z,25
2017-05-11T03:46:56.764Z,30
2017-05-11T03:48:09.454Z,30
2017-05-11T03:49:23.209Z,30
2017-05-11T03:50:34.357Z,35
2017-05-11T03:51:48.073Z,35
2017-05-11T03:53:02.013Z,35
2017-05-11T03:54:15.764Z,40
2017-05-11T03:55:29.484Z,40
2017-05-11T03:56:41.924Z,40
2017-05-11T03:57:54.371Z,45
2017-05-11T03:59:08.702Z,45
2017-05-11T04:00:21.137Z,50
2017-05-11T04:01:33.574Z,50
2017-05-11T04:02:47.290Z,50
2017-05-11T04:04:01.260Z,55
2017-05-11T04:05:14.981Z,55
2017-05-11T04:06:28.700Z,60
2017-05-11T04:07:42.439Z,60
2017-05-11T04:08:56.230Z,65
2017-05-11T04:10:10.219Z,65
2017-05-11T04:11:22.673Z,70
2017-05-11T04:12:36.410Z,70
2017-05-11T04:13:50.172Z,75
2017-05-11T04:15:04.166Z,75
2017-05-11T04:16:17.887Z,80
2017-05-11T04:17:30.322Z,80
2017-05-11T04:18:44.066Z,85
2017-05-11T04:19:57.820Z,85
2017-05-11T04:21:10.461Z,85
2017-05-11T04:22:24.229Z,90
2017-05-11T04:23:38.035Z,90
2017-05-11T04:24:51.759Z,95
2017-05-11T04:26:05.715Z,95
2017-05-11T04:27:18.179Z,95
2017-05-11T04:28:32.072Z,95
2017-05-11T04:29:45.788Z,100
2017-05-11T04:30:56.978Z,100
2017-05-11T04:32:10.980Z,105
2017-05-11T04:33:24.701Z,105
2017-05-11T04:34:38.420Z,105
2017-05-11T04:35:52.151Z,105
2017-05-11T04:37:06.090Z,110
2017-05-11T04:38:19.837Z,105
2017-05-11T04:39:33.560Z,110
2017-05-11T04:40:45.998Z,110
2017-05-11T04:41:59.742Z,110
2017-05-11T04:43:13.679Z,115
2017-05-11T04:44:27.431Z,115
2017-05-11T04:45:41.145Z,120
2017-05-11T04:46:53.585Z,120
2017-05-11T04:48:07.514Z,120
2017-05-11T04:49:21.366Z,125
2017-05-11T04:50:35.096Z,125
2017-05-11T04:51:46.247Z,125
2017-05-11T04:52:57.397Z,130
2017-05-11T04:54:11.328Z,130
2017-05-11T04:55:25.085Z,135
2017-05-11T04:56:38.894Z,135
2017-05-11T04:57:52.634Z,140
2017-05-11T04:59:06.565Z,140
2017-05-11T05:00:20.321Z,140
2017-05-11T05:01:34.064Z,145
2017-05-11T05:02:48.062Z,150
2017-05-11T05:04:01.778Z,150
2017-05-11T05:05:14.466Z,155
2017-05-11T05:06:28.193Z,155
2017-05-11T05:07:40.727Z,155
2017-05-11T05:08:51.922Z,155
2017-05-11T05:10:05.856Z,160
2017-05-11T05:11:19.589Z,160
2017-05-11T05:12:32.035Z,160
2017-05-11T05:13:45.824Z,160
2017-05-11T05:14:59.576Z,160
2017-05-11T05:16:12.208Z,170
2017-05-11T05:17:25.929Z,170
2017-05-11T05:18:39.661Z,175
2017-05-11T05:19:50.868Z,175
2017-05-11T05:21:04.859Z,180
2017-05-11T05:22:18.574Z,185
2017-05-11T05:23:32.328Z,185
2017-05-11T05:24:46.106Z,185
2017-05-11T05:26:00.058Z,190
2017-05-11T05:27:13.994Z,190
2017-05-11T05:28:27.734Z,190
2017-05-11T05:29:40.165Z,195
2017-05-11T05:30:53.883Z,195
2017-05-11T05:32:06.616Z,195
2017-05-11T05:33:19.161Z,200
2017-05-11T05:34:32.936Z,205
2017-05-11T05:35:46.930Z,205
2017-05-11T05:37:00.651Z,210
2017-05-11T05:38:14.673Z,210
2017-05-11T05:39:28.399Z,215
2017-05-11T05:40:42.122Z,215
2017-05-11T05:41:53.284Z,220
2017-05-11T05:43:05.932Z,215
2017-05-11T05:44:19.671Z,220
2017-05-11T05:45:33.480Z,210
2017-05-11T05:46:47.216Z,205
2017-05-11T05:48:00.958Z,220
2017-05-11T05:49:14.937Z,225
2017-05-11T05:50:27.361Z,230
2017-05-11T05:51:41.225Z,220
2017-05-11T05:52:54.945Z,235
2017-05-11T05:54:08.875Z,240
2017-05-11T05:55:21.310Z,240
2017-05-11T05:56:35.034Z,240
2017-05-11T05:57:48.822Z,245
2017-05-11T05:59:02.569Z,245
2017-05-11T06:00:16.806Z,250
2017-05-11T06:01:30.546Z,250
2017-05-11T06:02:44.311Z,250
2017-05-11T06:03:58.048Z,250
2017-05-11T06:05:12.040Z,250
2017-05-11T06:06:25.889Z,250
2017-05-11T06:07:38.326Z,250
2017-05-11T06:08:52.138Z,255
2017-05-11T06:10:03.287Z,250
2017-05-11T06:11:17.316Z,245
2017-05-11T06:12:29.752Z,245
2017-05-11T06:13:43.486Z,250
2017-05-11T06:14:57.228Z,250
2017-05-11T06:16:11.170Z,255
2017-05-11T06:17:24.890Z,255
2017-05-11T06:18:38.673Z,255
2017-05-11T06:19:52.409Z,260
2017-05-11T06:21:06.181Z,260
2017-05-11T06:22:20.158Z,265
2017-05-11T06:23:31.319Z,270
2017-05-11T06:24:45.047Z,270
2017-05-11T06:25:57.543Z,275
2017-05-11T06:27:11.550Z,275
2017-05-11T06:28:25.525Z,275
2017-05-11T06:29:39.320Z,290
2017-05-11T06:30:53.094Z,280
2017-05-11T06:32:06.820Z,280
2017-05-11T06:33:20.762Z,285
2017-05-11T06:34:33.207Z,285
2017-05-11T06:35:46.977Z,285
2017-05-11T06:36:59.424Z,290
2017-05-11T06:38:13.404Z,290
2017-05-11T06:39:24.577Z,290
2017-05-11T06:40:37.070Z,290
2017-05-11T06:41:51.022Z,300
2017-05-11T06:43:04.749Z,295
2017-05-11T06:44:18.753Z,295
2017-05-11T06:45:31.185Z,295
2017-05-11T06:46:44.961Z,300
2017-05-11T06:47:58.722Z,300
2017-05-11T06:49:10.075Z,300
2017-05-11T06:50:22.523Z,305
2017-05-11T06:51:32.403Z,305
2017-05-11T06:52:44.855Z,310
2017-05-11T06:53:58.607Z,310
2017-05-11T06:55:12.624Z,310
2017-05-11T06:56:25.075Z,315
2017-05-11T06:57:38.926Z,315
2017-05-11T06:58:51.362Z,315
2017-05-11T07:00:05.320Z,315
2017-05-11T07:01:19.096Z,320
2017-05-11T07:02:32.846Z,320
2017-05-11T07:03:46.598Z,325
2017-05-11T07:04:59.049Z,325
2017-05-11T07:06:11.689Z,325
2017-05-11T07:07:24.146Z,335
2017-05-11T07:08:37.897Z,330
2017-05-11T07:09:50.343Z,330
2017-05-11T07:11:02.977Z,335
2017-05-11T07:12:15.415Z,335
2017-05-11T07:13:29.175Z,335
2017-05-11T07:14:41.612Z,340
2017-05-11T07:15:54.086Z,340
2017-05-11T07:17:08.066Z,340
2017-05-11T07:18:20.523Z,345
2017-05-11T07:19:34.256Z,345
2017-05-11T07:20:47.979Z,350
2017-05-11T07:22:01.925Z,350
2017-05-11T07:23:14.361Z,355
2017-05-11T07:24:28.309Z,355
2017-05-11T07:25:42.069Z,360
2017-05-11T07:26:55.803Z,360
2017-05-11T07:28:08.452Z,360
2017-05-11T07:29:21.105Z,365
2017-05-11T07:30:32.257Z,370
2017-05-11T07:31:46.212Z,370
2017-05-11T07:32:58.666Z,375
2017-05-11T07:34:11.309Z,375
2017-05-11T07:35:25.115Z,380
2017-05-11T07:36:38.830Z,385
2017-05-11T07:37:49.995Z,385
2017-05-11T07:39:03.929Z,390
2017-05-11T07:40:17.729Z,395
2017-05-11T07:41:31.471Z,395
2017-05-11T07:42:45.215Z,400
2017-05-11T07:43:58.966Z,405
2017-05-11T07:45:12.899Z,410
2017-05-11T07:46:26.633Z,415
2017-05-11T07:47:40.648Z,420
2017-05-11T07:48:54.367Z,420
2017-05-11T07:50:08.314Z,425
2017-05-11T07:51:22.061Z,430
2017-05-11T07:52:35.816Z,435
2017-05-11T07:53:49.738Z,440
2017-05-11T07:55:03.470Z,445
2017-05-11T07:56:16.123Z,445
2017-05-11T07:57:28.612Z,455
2017-05-11T07:58:42.360Z,450
2017-05-11T07:59:56.094Z,455
2017-05-11T08:01:10.031Z,460
2017-05-11T08:02:23.792Z,460
2017-05-11T08:03:36.247Z,460
2017-05-11T08:04:51.582Z,465
2017-05-11T08:06:07.129Z,470
2017-05-11T08:07:22.523Z,475
2017-05-11T08:08:37.915Z,480
2017-05-11T08:09:50.605Z,480
2017-05-11T08:11:04.698Z,485
2017-05-11T08:12:20.236Z,485
2017-05-11T08:13:35.608Z,485
2017-05-11T08:14:50.944Z,490
2017-05-11T08:16:05.024Z,495
2017-05-11T08:17:19.336Z,495
2017-05-11T08:18:34.719Z,500
2017-05-11T08:19:50.179Z,505
2017-05-11T08:21:05.719Z,520
2017-05-11T08:22:21.340Z,545
2017-05-11T08:23:34.105Z,585
2017-05-11T08:24:48.143Z,620
2017-05-11T08:26:01.170Z,645
2017-05-11T08:27:16.705Z,670
2017-05-11T08:28:32.072Z,695
2017-05-11T08:29:47.417Z,715
2017-05-11T08:31:02.745Z,1185
2017-05-11T08:32:15.745Z,2695
2017-05-11T08:33:31.102Z,2890
2017-05-11T08:34:45.072Z,2660
2017-05-11T08:35:58.754Z,2620
2017-05-11T08:37:13.024Z,2785
2017-05-11T08:38:28.361Z,2860
2017-05-11T08:39:43.969Z,2810
2017-05-11T08:40:59.652Z,2790
2017-05-11T08:42:15.223Z,2880
2017-05-11T08:43:30.584Z,3055
2017-05-11T08:44:45.978Z,3140
2017-05-11T08:46:01.356Z,3035
2017-05-11T08:47:15.677Z,2840
2017-05-11T08:48:29.381Z,3215
2017-05-11T08:49:44.973Z,3935
2017-05-11T08:51:00.316Z,4190
2017-05-11T08:52:15.870Z,4245
2017-05-11T08:53:31.215Z,3975
2017-05-11T08:54:46.591Z,3300
2017-05-11T08:56:01.950Z,3015
2017-05-11T08:57:17.518Z,3105
2017-05-11T08:58:31.823Z,3260
2017-05-11T08:59:44.607Z,3035
2017-05-11T09:00:59.956Z,2835
2017-05-11T09:02:15.307Z,2870
2017-05-11T09:03:30.904Z,3055
2017-05-11T09:04:43.666Z,3460
2017-05-11T09:05:59.042Z,3785
2017-05-11T09:07:14.390Z,3820
2017-05-11T09:08:29.963Z,3820
2017-05-11T09:09:44.013Z,3775
2017-05-11T09:10:58.112Z,3680
2017-05-11T09:12:13.530Z,3635
2017-05-11T09:13:27.721Z,3690
2017-05-11T09:14:43.310Z,3725
2017-05-11T09:15:58.682Z,3635
2017-05-11T09:17:14.024Z,3545
2017-05-11T09:18:28.331Z,3400
2017-05-11T09:19:43.731Z,3340
2017-05-11T09:20:57.835Z,3450
2017-05-11T09:22:11.937Z,3525
2017-05-11T09:23:27.508Z,3455
2017-05-11T09:24:41.576Z,3195
2017-05-11T09:25:55.765Z,2915
2017-05-11T09:27:11.130Z,2750
2017-05-11T09:28:26.745Z,2725
2017-05-11T09:29:40.829Z,2830
2017-05-11T09:30:53.488Z,3035
2017-05-11T09:32:08.887Z,3380
2017-05-11T09:33:24.423Z,3680
2017-05-11T09:34:38.604Z,3915
2017-05-11T09:35:49.963Z,4170
2017-05-11T09:37:05.333Z,4350
2017-05-11T09:38:19.428Z,4275
2017-05-11T09:39:35.108Z,4090
2017-05-11T09:40:49.244Z,3880
2017-05-11T09:42:03.311Z,3800
2017-05-11T09:43:18.747Z,3915
2017-05-11T09:44:34.483Z,4060
2017-05-11T09:45:47.621Z,4095
2017-05-11T09:47:03.113Z,4060
2017-05-11T09:48:18.502Z,3905
2017-05-11T09:49:34.079Z,3835
2017-05-11T09:50:49.488Z,3950
2017-05-11T09:52:02.282Z,4210
2017-05-11T09:53:17.672Z,4435
2017-05-11T09:54:33.060Z,4510
2017-05-11T09:55:47.421Z,4340
2017-05-11T09:57:02.774Z,4100
2017-05-11T09:58:16.858Z,4090
2017-05-11T09:59:28.234Z,4170
2017-05-11T10:00:43.950Z,4250
2017-05-11T10:01:59.346Z,4475
2017-05-11T10:03:13.307Z,4850
2017-05-11T10:04:28.708Z,5045
2017-05-11T10:05:42.605Z,4845
2017-05-11T10:06:58.093Z,4360
2017-05-11T10:08:10.758Z,4230
2017-05-11T10:09:24.877Z,4305
2017-05-11T10:10:40.687Z,4430
2017-05-11T10:11:54.622Z,4660
2017-05-11T10:13:08.711Z,4820
2017-05-11T10:14:53.507Z,4750
2017-05-11T10:16:09.071Z,4725
2017-05-11T10:17:23.308Z,4795
2017-05-11T10:18:38.718Z,4915
2017-05-11T10:19:54.196Z,5185
2017-05-11T10:21:08.512Z,5285
2017-05-11T10:22:24.028Z,5055
2017-05-11T10:23:38.118Z,4710
2017-05-11T10:24:52.188Z,4600
2017-05-11T10:26:05.158Z,4930
2017-05-11T10:27:20.531Z,5300
2017-05-11T10:28:36.103Z,5435
2017-05-11T10:29:50.188Z,5305
2017-05-11T10:31:04.557Z,4940
2017-05-11T10:32:19.937Z,4720
2017-05-11T10:33:33.912Z,4645
2017-05-11T10:34:49.277Z,4585
2017-05-11T10:36:03.502Z,4570
2017-05-11T10:37:17.565Z,4695
2017-05-11T10:38:32.964Z,5000
2017-05-11T10:39:48.615Z,5265
2017-05-11T10:41:01.653Z,5530
2017-05-11T10:42:17.024Z,5855
2017-05-11T10:43:32.443Z,5950
2017-05-11T10:44:46.538Z,5790
2017-05-11T10:46:00.568Z,5410
2017-05-11T10:47:14.945Z,4995
2017-05-11T10:48:30.307Z,4660
2017-05-11T10:49:45.696Z,4620
2017-05-11T10:50:59.770Z,4640
2017-05-11T10:52:12.800Z,4680
2017-05-11T10:53:25.470Z,4745
2017-05-11T10:54:39.624Z,4740
2017-05-11T10:55:54.999Z,4805
2017-05-11T10:57:10.655Z,5040
2017-05-11T10:58:56.881Z,5300
2017-05-11T11:00:12.250Z,5290
2017-05-11T11:01:26.200Z,5155
2017-05-11T11:02:41.834Z,5110
2017-05-11T11:03:56.268Z,5145
2017-05-11T11:05:11.656Z,5220
2017-05-11T11:06:27.076Z,5235
2017-05-11T11:07:41.277Z,5245
2017-05-11T11:08:56.389Z,5300
2017-05-11T11:10:11.748Z,5325
2017-05-11T11:11:27.129Z,5385
2017-05-11T11:12:41.304Z,5350
2017-05-11T11:13:56.697Z,5235
2017-05-11T11:15:09.121Z,5145
2017-05-11T11:16:24.536Z,5135
2017-05-11T11:17:40.097Z,5180
2017-05-11T11:18:52.890Z,5085
2017-05-11T11:20:07.031Z,4925
2017-05-11T11:21:22.440Z,4705
2017-05-11T11:22:36.828Z,4675
2017-05-11T11:23:52.302Z,4680
2017-05-11T11:25:04.976Z,4615
2017-05-11T11:26:20.395Z,4585
2017-05-11T11:27:35.960Z,4555
2017-05-11T11:28:51.437Z,4600
2017-05-11T11:30:06.874Z,4910
2017-05-11T11:31:22.240Z,5100
2017-05-11T11:32:37.814Z,4980
2017-05-11T11:33:53.461Z,4670
2017-05-11T11:35:07.549Z,4335
2017-05-11T11:36:21.641Z,4135
2017-05-11T11:37:35.931Z,4105
2017-05-11T11:38:50.027Z,4260
2017-05-11T11:40:05.442Z,4635
2017-05-11T11:41:19.389Z,4995
2017-05-11T11:42:34.755Z,5170
2017-05-11T11:43:50.406Z,5100
2017-05-11T11:45:05.798Z,5185
2017-05-11T11:46:21.215Z,5260
2017-05-11T11:47:35.554Z,5215
2017-05-11T11:48:51.157Z,5030
2017-05-11T11:50:06.591Z,4835
2017-05-11T11:51:20.677Z,4575
2017-05-11T11:52:33.476Z,4490
2017-05-11T11:53:46.716Z,4525
2017-05-11T11:55:00.695Z,4500
2017-05-11T11:56:16.094Z,4555
2017-05-11T11:57:31.482Z,4640
2017-05-11T11:58:47.118Z,4660
2017-05-11T12:00:01.195Z,4660
2017-05-11T12:01:16.602Z,4660
2017-05-11T12:02:31.981Z,4755
2017-05-11T12:03:46.322Z,4905
2017-05-11T12:05:01.691Z,4905
2017-05-11T12:06:17.105Z,4735
2017-05-11T12:07:32.493Z,4620
2017-05-11T12:08:46.872Z,4600
2017-05-11T12:10:01.074Z,4695
2017-05-11T12:11:16.578Z,4660
2017-05-11T12:12:30.671Z,4540
2017-05-11T12:13:46.323Z,4280
2017-05-11T12:15:00.429Z,4160
2017-05-11T12:16:46.651Z,4560
2017-05-11T12:18:00.611Z,4960
2017-05-11T12:19:16.450Z,5110
2017-05-11T12:20:31.882Z,5080
2017-05-11T12:21:47.270Z,4675
2017-05-11T12:23:02.755Z,4455
2017-05-11T12:24:18.469Z,4370
2017-05-11T12:25:33.899Z,4355
2017-05-11T12:26:46.703Z,4435
2017-05-11T12:27:59.373Z,4475
2017-05-11T12:29:13.523Z,4335
2017-05-11T12:30:28.908Z,4235
2017-05-11T12:31:42.981Z,4085
2017-05-11T12:32:58.376Z,3675
2017-05-11T12:34:14.026Z,3300
2017-05-11T12:35:28.097Z,3070
2017-05-11T12:36:43.591Z,3190
2017-05-11T12:37:59.085Z,3590
2017-05-11T12:39:13.406Z,3865
2017-05-11T12:40:26.086Z,4010
2017-05-11T12:41:40.415Z,3915
2017-05-11T12:42:56.043Z,3725
2017-05-11T12:44:11.734Z,3845
2017-05-11T12:45:25.871Z,4365
2017-05-11T12:46:41.244Z,4610
2017-05-11T12:47:56.628Z,4570
2017-05-11T12:49:10.925Z,4290
2017-05-11T12:50:25.018Z,4005
2017-05-11T12:51:40.414Z,3735
2017-05-11T12:52:55.799Z,3735
2017-05-11T12:54:10.304Z,3805
2017-05-11T12:55:25.881Z,4015
2017-05-11T12:56:38.528Z,4210
2017-05-11T12:57:53.887Z,4320
2017-05-11T12:59:08.917Z,4285
2017-05-11T13:00:23.119Z,4065
2017-05-11T13:01:38.495Z,3865
2017-05-11T13:02:52.676Z,3730
2017-05-11T13:04:08.074Z,3610
2017-05-11T13:05:23.658Z,3690
2017-05-11T13:06:37.374Z,3855
2017-05-11T13:07:52.750Z,3955
2017-05-11T13:09:08.180Z,3955
2017-05-11T13:10:22.511Z,3780
2017-05-11T13:11:37.917Z,3635
2017-05-11T13:12:52.034Z,3665
2017-05-11T13:14:07.567Z,3755
2017-05-11T13:15:23.147Z,4020
2017-05-11T13:16:38.543Z,4330
2017-05-11T13:17:51.428Z,4495
2017-05-11T13:19:37.675Z,4365
2017-05-11T13:20:52.026Z,4080
2017-05-11T13:22:07.511Z,3865
2017-05-11T13:23:22.904Z,3500
2017-05-11T13:24:36.893Z,3410
2017-05-11T13:25:50.859Z,3375
2017-05-11T13:27:06.267Z,3430
2017-05-11T13:28:21.677Z,3570
2017-05-11T13:29:35.782Z,3790
2017-05-11T13:30:50.231Z,4045
2017-05-11T13:32:04.317Z,4185
2017-05-11T13:33:19.672Z,4205
2017-05-11T13:34:35.069Z,4110
2017-05-11T13:35:48.216Z,3965
2017-05-11T13:37:03.697Z,3850
2017-05-11T13:38:17.769Z,3825
2017-05-11T13:39:31.857Z,3965
2017-05-11T13:40:45.829Z,4145
2017-05-11T13:42:01.396Z,4255
2017-05-11T13:43:14.296Z,4075
2017-05-11T13:44:29.904Z,3750
2017-05-11T13:45:45.274Z,3440
2017-05-11T13:47:00.926Z,3505
2017-05-11T13:48:15.008Z,3860
2017-05-11T13:49:29.045Z,4150
2017-05-11T13:50:44.502Z,4265
2017-05-11T13:51:58.673Z,4080
2017-05-11T13:53:12.742Z,3770
2017-05-11T13:54:26.726Z,3540
2017-05-11T13:55:42.112Z,3395
2017-05-11T13:56:57.805Z,3395
2017-05-11T13:58:13.191Z,3500
2017-05-11T13:59:27.199Z,3775
2017-05-11T14:00:41.279Z,3920
2017-05-11T14:01:56.946Z,3920
2017-05-11T14:03:10.653Z,3775
2017-05-11T14:04:24.770Z,3320
2017-05-11T14:05:40.270Z,2895
2017-05-11T14:06:55.623Z,2800
2017-05-11T14:08:11.177Z,2910
2017-05-11T14:09:26.687Z,2975
2017-05-11T14:10:42.193Z,3070
2017-05-11T14:11:57.602Z,3310
2017-05-11T14:13:13.172Z,3350
2017-05-11T14:14:28.523Z,3120
2017-05-11T14:15:41.310Z,2745
2017-05-11T14:16:55.287Z,2600
2017-05-11T14:18:09.634Z,2700
2017-05-11T14:19:22.430Z,2795
2017-05-11T14:20:35.173Z,2845
2017-05-11T14:21:49.250Z,2895
2017-05-11T14:23:04.799Z,2915
2017-05-11T14:24:18.531Z,2885
2017-05-11T14:25:33.932Z,2795
2017-05-11T14:26:47.924Z,2820
2017-05-11T14:28:00.704Z,2910
2017-05-11T14:29:16.337Z,2960
2017-05-11T14:30:30.670Z,2830
2017-05-11T14:31:46.126Z,2625
2017-05-11T14:33:01.491Z,2430
2017-05-11T14:34:17.059Z,2345
2017-05-11T14:35:31.163Z,2485
2017-05-11T14:36:46.600Z,2845
2017-05-11T14:38:01.976Z,3165
2017-05-11T14:39:17.682Z,3195
2017-05-11T14:40:33.051Z,2905
2017-05-11T14:41:48.685Z,2595
2017-05-11T14:43:04.071Z,2345
2017-05-11T14:44:18.485Z,2380
2017-05-11T14:45:32.591Z,2620
2017-05-11T14:46:47.972Z,2820
2017-05-11T14:48:02.268Z,2985
2017-05-11T14:49:17.847Z,2995
2017-05-11T14:50:33.236Z,2945
2017-05-11T14:51:48.830Z,2665
2017-05-11T14:53:02.831Z,2260
2017-05-11T14:54:18.395Z,2080
2017-05-11T14:55:33.754Z,2040
2017-05-11T14:56:49.131Z,2170
2017-05-11T14:58:04.611Z,2150
2017-05-11T14:59:20.261Z,1965
2017-05-11T15:00:35.919Z,1805
2017-05-11T15:01:51.324Z,1780
2017-05-11T15:03:04.115Z,2035
2017-05-11T15:04:19.685Z,2280
2017-05-11T15:05:35.072Z,2315
2017-05-11T15:06:50.463Z,1995
2017-05-11T15:08:05.980Z,1720
2017-05-11T15:09:21.770Z,1660
2017-05-11T15:10:37.168Z,1795
2017-05-11T15:11:51.275Z,1915
2017-05-11T15:13:06.881Z,1970
2017-05-11T15:14:21.181Z,1735
2017-05-11T15:15:36.590Z,760
2017-05-11T15:16:51.959Z,635
2017-05-11T15:18:07.386Z,550
2017-05-11T15:19:23.031Z,545
2017-05-11T15:20:38.108Z,585
2017-05-11T15:21:52.048Z,605
2017-05-11T15:23:06.178Z,580
2017-05-11T15:24:21.740Z,605
2017-05-11T15:25:35.868Z,590
2017-05-11T15:26:51.685Z,590
2017-05-11T15:28:07.075Z,620
2017-05-11T15:29:23.058Z,595
2017-05-11T15:30:37.410Z,575
2017-05-11T15:31:53.004Z,565
2017-05-11T15:33:07.089Z,590
2017-05-11T15:34:22.665Z,575
2017-05-11T15:35:38.075Z,635
2017-05-11T15:36:53.432Z,635
2017-05-11T15:38:08.940Z,610
2017-05-11T15:39:23.245Z,575
2017-05-11T15:40:38.623Z,550
2017-05-11T15:41:54.063Z,530
2017-05-11T15:43:09.439Z,520
2017-05-11T15:44:25.015Z,505
2017-05-11T15:45:40.426Z,495
2017-05-11T15:46:55.833Z,490
2017-05-11T15:48:11.219Z,490
2017-05-11T15:49:26.872Z,490
2017-05-11T15:50:42.293Z,480
2017-05-11T15:51:57.772Z,475
2017-05-11T15:53:13.137Z,470
2017-05-11T15:54:28.808Z,465
2017-05-11T15:55:44.234Z,460
2017-05-11T15:56:58.184Z,480
2017-05-11T15:58:13.532Z,465
2017-05-11T15:59:27.610Z,470
2017-05-11T16:00:41.906Z,470
2017-05-11T16:01:57.262Z,460
2017-05-11T16:03:11.389Z,450
2017-05-11T16:04:25.429Z,420
2017-05-11T16:05:41.025Z,410
2017-05-11T16:06:53.666Z,400
2017-05-11T16:08:09.140Z,365
2017-05-11T16:09:24.534Z,350
2017-05-11T16:10:38.854Z,350
2017-05-11T16:11:52.790Z,375
2017-05-11T16:13:08.212Z,355
2017-05-11T16:14:22.302Z,370
2017-05-11T16:15:38.085Z,375
2017-05-11T16:16:53.453Z,370
2017-05-11T16:18:08.541Z,355
2017-05-11T16:19:22.698Z,300
2017-05-11T16:20:38.267Z,300
2017-05-11T16:21:53.735Z,325
2017-05-11T16:23:07.956Z,310
2017-05-11T16:24:23.296Z,300
2017-05-11T16:25:39.143Z,300
2017-05-11T16:26:53.204Z,295
2017-05-11T16:28:08.591Z,280
2017-05-11T16:29:23.972Z,265
2017-05-11T16:30:39.532Z,260
2017-05-11T16:31:54.914Z,260
2017-05-11T16:33:10.304Z,260
2017-05-11T16:34:25.724Z,255
2017-05-11T16:35:41.298Z,255
2017-05-11T16:36:56.729Z,255
2017-05-11T16:38:12.161Z,265
2017-05-11T16:39:27.539Z,260
2017-05-11T16:40:43.135Z,245
2017-05-11T16:41:57.422Z,240
2017-05-11T16:43:12.464Z,240
2017-05-11T16:44:27.804Z,245
2017-05-11T16:45:43.361Z,240
2017-05-11T16:46:58.794Z,235
2017-05-11T16:48:14.181Z,230
2017-05-11T16:49:29.565Z,235
2017-05-11T16:50:45.435Z,230
2017-05-11T16:52:00.820Z,225
2017-05-11T16:53:14.769Z,225
2017-05-11T16:54:28.760Z,220
2017-05-11T16:55:42.932Z,220
2017-05-11T16:56:58.532Z,220
2017-05-11T16:58:12.682Z,225
2017-05-11T16:59:28.043Z,235
2017-05-11T17:00:43.424Z,240
2017-05-11T17:01:57.759Z,250
2017-05-11T17:03:11.849Z,265
2017-05-11T17:04:25.932Z,270
2017-05-11T17:05:41.330Z,270
2017-05-11T17:06:55.660Z,260